Time;durP1;ratioP1;P1;durP2;ratioP2;P2;SDS_P1;SDS_P2;PMS_P1;PMS_P2;Temp;Humidity;BMP_temperature;BMP_pressure;BME280_temperature;BME280_humidity;BME280_pressure;Samples;Min_cycle;Max_cycle;Signal;HPM_P1;HPM_P2
2023/12/19 00:00:28;;;;;;;4.40;2.77;;;1.30;54.00;;;;;;4946757;28;45837;-79
2023/12/19 00:02:54;;;;;;;5.38;3.30;;;1.40;54.00;;;;;;4944248;28;46349;-78
2023/12/19 00:05:20;;;;;;;5.60;2.90;;;1.30;54.20;;;;;;4943113;28;47034;-79
2023/12/19 00:07:46;;;;;;;4.70;2.60;;;1.20;54.40;;;;;;4943770;28;46560;-78
2023/12/19 00:10:11;;;;;;;5.28;2.70;;;1.10;54.60;;;;;;4938251;28;46455;-79
2023/12/19 00:12:37;;;;;;;5.63;2.40;;;1.00;54.70;;;;;;4940854;28;46776;-76
2023/12/19 00:15:04;;;;;;;6.33;2.70;;;1.00;54.80;;;;;;4942344;28;46672;-78
2023/12/19 00:17:29;;;;;;;5.38;3.10;;;0.90;54.70;;;;;;4941303;28;46565;-76
2023/12/19 00:19:56;;;;;;;6.30;3.10;;;0.80;54.80;;;;;;4939357;28;46900;-75
2023/12/19 00:22:22;;;;;;;6.28;2.58;;;0.80;55.10;;;;;;4937999;28;46698;-76
2023/12/19 00:24:48;;;;;;;4.10;2.60;;;0.70;55.20;;;;;;4938760;28;46769;-77
2023/12/19 00:27:14;;;;;;;4.53;3.10;;;0.80;55.20;;;;;;4937522;28;47733;-78
2023/12/19 00:29:40;;;;;;;5.57;3.00;;;0.80;55.20;;;;;;4940077;28;46660;-77
2023/12/19 00:32:05;;;;;;;4.77;2.83;;;0.80;55.00;;;;;;4940056;28;47023;-77
2023/12/19 00:34:31;;;;;;;5.90;2.90;;;0.80;55.00;;;;;;4939674;28;46459;-78
2023/12/19 00:36:57;;;;;;;6.10;3.03;;;0.80;54.80;;;;;;4939694;28;46776;-77
2023/12/19 00:39:23;;;;;;;7.33;3.23;;;0.80;54.80;;;;;;4939422;28;45884;-79
2023/12/19 00:41:48;;;;;;;4.83;3.13;;;0.80;54.60;;;;;;4937937;28;46530;-77
2023/12/19 00:44:14;;;;;;;4.27;2.97;;;0.90;54.60;;;;;;4921379;28;46538;-75
2023/12/19 00:46:43;;;;;;;6.03;3.10;;;0.90;54.40;;;;;;4938237;28;48164;-78
2023/12/19 00:49:09;;;;;;;7.63;3.40;;;0.90;54.30;;;;;;4924847;28;46811;-77
2023/12/19 00:51:34;;;;;;;4.13;2.97;;;1.00;54.70;;;;;;4942420;28;46526;-75
2023/12/19 00:54:00;;;;;;;6.20;2.90;;;1.00;54.10;;;;;;4943065;28;46833;-78
2023/12/19 00:56:25;;;;;;;6.03;3.07;;;1.00;54.20;;;;;;4943831;28;46121;-78
2023/12/19 00:58:51;;;;;;;4.53;3.20;;;0.90;54.10;;;;;;4943499;28;47369;-76
2023/12/19 01:01:21;;;;;;;5.13;3.40;;;0.90;54.20;;;;;;4942061;28;47208;-76
2023/12/19 01:03:47;;;;;;;6.28;2.90;;;0.90;54.30;;;;;;4941648;28;46374;-77
2023/12/19 01:06:13;;;;;;;7.07;3.20;;;0.90;54.30;;;;;;4942510;28;46386;-78
2023/12/19 01:08:38;;;;;;;6.00;2.90;;;0.90;54.30;;;;;;4942750;28;46470;-79
2023/12/19 01:11:04;;;;;;;4.93;3.10;;;0.80;54.30;;;;;;4942827;28;46699;-79
2023/12/19 01:13:29;;;;;;;3.23;2.37;;;0.70;54.30;;;;;;4944293;28;46477;-78
2023/12/19 01:15:56;;;;;;;4.87;2.80;;;0.70;54.40;;;;;;4941589;28;48253;-79
2023/12/19 01:18:21;;;;;;;4.32;2.85;;;0.70;54.50;;;;;;4942050;28;46504;-78
2023/12/19 01:20:47;;;;;;;5.13;3.07;;;0.70;54.40;;;;;;4939365;28;46483;-77
2023/12/19 01:23:13;;;;;;;5.95;2.55;;;0.70;54.40;;;;;;4941877;28;46489;-79
2023/12/19 01:25:40;;;;;;;5.03;2.58;;;0.70;54.40;;;;;;4942318;28;46902;-77
2023/12/19 01:28:06;;;;;;;3.50;2.25;;;0.70;54.20;;;;;;4942219;28;46179;-79
2023/12/19 01:30:31;;;;;;;6.23;3.00;;;0.80;53.80;;;;;;4942462;28;46554;-78
2023/12/19 01:32:57;;;;;;;4.13;2.60;;;0.80;53.80;;;;;;4943547;28;46117;-78
2023/12/19 01:35:23;;;;;;;5.03;2.47;;;0.90;54.00;;;;;;4927550;28;47919;-77
2023/12/19 01:37:49;;;;;;;4.10;2.07;;;0.90;54.10;;;;;;4942482;28;46415;-78
2023/12/19 01:40:14;;;;;;;3.37;2.17;;;0.80;54.00;;;;;;4944518;28;45864;-80
2023/12/19 01:42:40;;;;;;;5.13;2.23;;;0.80;54.30;;;;;;4944730;28;46215;-79
2023/12/19 01:45:10;;;;;;;3.73;2.53;;;0.80;54.30;;;;;;4943593;28;45911;-79
2023/12/19 01:47:40;;;;;;;3.80;2.20;;;0.80;54.20;;;;;;4945453;28;46635;-78
2023/12/19 01:50:07;;;;;;;5.93;1.90;;;0.70;54.20;;;;;;4942399;28;45861;-80
2023/12/19 01:52:33;;;;;;;4.90;2.38;;;0.70;54.30;;;;;;4944812;28;46511;-76
2023/12/19 01:54:59;;;;;;;4.53;2.65;;;0.70;54.40;;;;;;4942470;28;47161;-76
2023/12/19 01:57:24;;;;;;;3.90;2.00;;;0.70;54.30;;;;;;4927342;28;46440;-79
2023/12/19 01:59:50;;;;;;;4.97;2.10;;;0.70;54.20;;;;;;4945886;28;46486;-80
2023/12/19 02:02:19;;;;;;;4.60;2.40;;;0.80;54.30;;;;;;4946037;28;46412;-76
2023/12/19 02:04:45;;;;;;;3.72;2.50;;;0.80;54.10;;;;;;4944184;28;46990;-79
2023/12/19 02:07:10;;;;;;;4.27;2.13;;;0.80;53.90;;;;;;4944345;28;47234;-78
2023/12/19 02:09:36;;;;;;;3.03;1.73;;;0.90;53.90;;;;;;4943579;28;46575;-79
2023/12/19 02:12:01;;;;;;;2.53;1.70;;;0.90;55.00;;;;;;4942636;28;46429;-77
2023/12/19 02:14:27;;;;;;;4.77;2.23;;;1.00;53.70;;;;;;4944239;28;46636;-77
2023/12/19 02:16:52;;;;;;;4.10;2.10;;;1.10;53.40;;;;;;4940862;28;45921;-78
2023/12/19 02:19:18;;;;;;;2.77;1.73;;;1.20;53.30;;;;;;4942080;28;46371;-78
2023/12/19 02:21:43;;;;;;;4.00;2.33;;;1.20;53.00;;;;;;4924930;28;46355;-78
2023/12/19 02:24:09;;;;;;;2.40;1.73;;;1.30;53.00;;;;;;4941385;28;46543;-77
2023/12/19 02:26:35;;;;;;;3.60;1.70;;;1.20;53.00;;;;;;4942856;28;45963;-78
2023/12/19 02:29:01;;;;;;;3.88;1.95;;;1.20;53.00;;;;;;4940433;28;46465;-77
2023/12/19 02:31:27;;;;;;;4.33;1.90;;;1.20;53.20;;;;;;4941520;28;46395;-76
2023/12/19 02:33:52;;;;;;;5.50;2.43;;;1.20;53.20;;;;;;4924199;28;48527;-78
2023/12/19 02:36:18;;;;;;;3.30;1.87;;;1.20;53.30;;;;;;4940597;28;46874;-78
2023/12/19 02:38:43;;;;;;;3.40;2.00;;;1.20;53.30;;;;;;4943748;28;47051;-76
2023/12/19 02:41:10;;;;;;;3.00;1.57;;;1.20;53.30;;;;;;4941004;28;46395;-77
2023/12/19 02:43:39;;;;;;;5.00;2.22;;;1.20;53.30;;;;;;4942288;28;47106;-79
2023/12/19 02:46:05;;;;;;;3.75;2.00;;;1.30;53.30;;;;;;4939051;28;46501;-76
2023/12/19 02:48:30;;;;;;;2.90;2.00;;;1.20;53.40;;;;;;4941643;28;46497;-78
2023/12/19 02:50:56;;;;;;;4.53;2.50;;;1.10;53.70;;;;;;4942217;28;47185;-77
2023/12/19 02:53:21;;;;;;;4.63;1.80;;;1.00;53.70;;;;;;4942808;28;46587;-77
2023/12/19 02:55:47;;;;;;;3.47;2.10;;;1.00;53.90;;;;;;4941884;28;46398;-80
2023/12/19 02:58:12;;;;;;;2.23;1.60;;;0.90;53.90;;;;;;4942838;28;46770;-78
2023/12/19 03:00:38;;;;;;;2.70;1.80;;;0.90;53.90;;;;;;4942752;28;46661;-79
2023/12/19 03:03:03;;;;;;;4.93;2.60;;;0.90;53.90;;;;;;4942627;28;47196;-77
2023/12/19 03:05:29;;;;;;;4.07;2.40;;;0.90;53.90;;;;;;4942281;28;46609;-80
2023/12/19 03:07:55;;;;;;;9.90;3.90;;;0.90;54.00;;;;;;4942499;28;46351;-77
2023/12/19 03:10:20;;;;;;;5.93;2.22;;;0.80;53.80;;;;;;4946552;28;45910;-76
2023/12/19 03:12:46;;;;;;;3.17;2.00;;;0.80;53.90;;;;;;4952109;28;46658;-78
2023/12/19 03:15:11;;;;;;;4.93;3.33;;;0.90;53.80;;;;;;4953850;28;45964;-77
2023/12/19 03:17:37;;;;;;;5.00;2.97;;;0.90;53.80;;;;;;4925178;28;46300;-79
2023/12/19 03:20:03;;;;;;;4.60;2.20;;;0.80;55.00;;;;;;4942272;28;46613;-79
2023/12/19 03:22:28;;;;;;;4.13;2.40;;;0.90;53.70;;;;;;4942948;28;46464;-78
2023/12/19 03:24:56;;;;;;;4.83;1.90;;;0.80;53.60;;;;;;4926233;28;46506;-77
2023/12/19 03:27:21;;;;;;;4.22;1.98;;;0.80;53.50;;;;;;4941933;28;46729;-77
2023/12/19 03:29:47;;;;;;;2.40;1.80;;;0.80;53.60;;;;;;4940824;28;47024;-77
2023/12/19 03:32:12;;;;;;;3.30;2.17;;;0.70;53.60;;;;;;4943366;28;47347;-77
2023/12/19 03:34:38;;;;;;;2.97;1.77;;;0.70;53.60;;;;;;4943262;28;45934;-78
2023/12/19 03:37:04;;;;;;;2.90;1.70;;;0.70;53.70;;;;;;4940646;28;46527;-78
2023/12/19 03:39:29;;;;;;;2.83;2.00;;;0.70;53.70;;;;;;4926762;28;46497;-79
2023/12/19 03:41:55;;;;;;;5.67;1.93;;;0.60;53.70;;;;;;4944294;28;46428;-79
2023/12/19 03:44:20;;;;;;;3.20;2.00;;;0.50;53.90;;;;;;4926348;28;46676;-80
2023/12/19 03:46:46;;;;;;;2.50;1.77;;;0.50;53.90;;;;;;4927730;28;46527;-78
2023/12/19 03:49:12;;;;;;;2.20;1.60;;;0.40;53.80;;;;;;4944318;28;46747;-78
2023/12/19 03:51:38;;;;;;;5.10;1.90;;;0.40;53.80;;;;;;4943805;28;46866;-80
2023/12/19 03:54:03;;;;;;;4.43;2.50;;;0.40;53.80;;;;;;4942814;28;46669;-79
2023/12/19 03:56:29;;;;;;;6.07;2.20;;;0.30;53.80;;;;;;4940092;28;46444;-78
2023/12/19 03:58:54;;;;;;;3.03;1.93;;;0.30;53.70;;;;;;4925492;28;46903;-79
2023/12/19 04:01:20;;;;;;;8.03;1.50;;;0.30;53.80;;;;;;4941908;28;51131;-76
2023/12/19 04:03:46;;;;;;;3.07;1.70;;;0.40;53.80;;;;;;4939584;28;46335;-78
2023/12/19 04:06:12;;;;;;;2.40;1.60;;;0.40;53.50;;;;;;4939441;28;46451;-76
2023/12/19 04:08:38;;;;;;;3.80;1.90;;;0.40;53.40;;;;;;4939570;28;46658;-76
2023/12/19 04:11:03;;;;;;;3.30;1.93;;;0.40;53.30;;;;;;4923389;28;49081;-77
2023/12/19 04:13:29;;;;;;;6.00;2.43;;;0.30;53.40;;;;;;4941325;28;46702;-75
2023/12/19 04:15:55;;;;;;;5.30;2.03;;;0.30;53.70;;;;;;4940754;28;46569;-78
2023/12/19 04:18:20;;;;;;;2.90;1.93;;;0.30;53.70;;;;;;4936519;28;46399;-76
2023/12/19 04:20:46;;;;;;;3.30;1.70;;;0.20;53.90;;;;;;4940395;28;46144;-78
2023/12/19 04:23:12;;;;;;;3.60;2.13;;;0.10;54.00;;;;;;4938834;28;46462;-77
2023/12/19 04:25:37;;;;;;;3.88;1.92;;;0.00;54.10;;;;;;4928234;28;46978;-78
2023/12/19 04:28:03;;;;;;;3.90;1.93;;;0.00;54.20;;;;;;4925191;28;46563;-78
2023/12/19 04:30:29;;;;;;;3.97;1.70;;;0.00;54.10;;;;;;4941279;28;48019;-76
2023/12/19 04:32:54;;;;;;;2.40;1.83;;;0.00;53.90;;;;;;4942076;28;46511;-80
2023/12/19 04:35:20;;;;;;;10.20;1.77;;;0.00;54.00;;;;;;4923403;28;46410;-77
2023/12/19 04:37:45;;;;;;;8.93;1.90;;;0.00;53.90;;;;;;4942055;28;46485;-77
2023/12/19 04:40:12;;;;;;;3.80;2.07;;;0.00;53.90;;;;;;4942733;28;48516;-77
2023/12/19 04:42:38;;;;;;;2.45;1.75;;;0.00;53.80;;;;;;4938269;28;46583;-77
2023/12/19 04:45:04;;;;;;;4.30;2.10;;;0.00;53.80;;;;;;4939576;28;46426;-76
2023/12/19 04:47:29;;;;;;;2.40;1.87;;;0.00;53.80;;;;;;4942461;28;46471;-78
2023/12/19 04:49:55;;;;;;;2.50;1.50;;;0.00;53.70;;;;;;4942785;28;46671;-78
2023/12/19 04:52:20;;;;;;;3.20;1.80;;;-0.10;53.70;;;;;;4942017;28;46490;-79
2023/12/19 04:54:46;;;;;;;3.13;1.73;;;-0.10;53.80;;;;;;4942305;28;46463;-77
2023/12/19 04:57:11;;;;;;;3.60;1.80;;;-0.10;53.80;;;;;;4941182;28;46593;-78
2023/12/19 04:59:37;;;;;;;2.70;1.50;;;-0.10;53.80;;;;;;4942597;28;46461;-78
2023/12/19 05:02:03;;;;;;;2.20;1.47;;;-0.10;53.70;;;;;;4941780;28;46483;-79
2023/12/19 05:04:28;;;;;;;2.53;1.50;;;-0.10;53.70;;;;;;4926036;28;46494;-78
2023/12/19 05:06:54;;;;;;;2.20;1.70;;;-0.20;53.60;;;;;;4927273;28;46016;-77
2023/12/19 05:09:20;;;;;;;2.40;1.63;;;-0.20;53.70;;;;;;4945274;28;46478;-77
2023/12/19 05:11:46;;;;;;;2.42;1.55;;;-0.30;53.80;;;;;;4944853;28;46726;-78
2023/12/19 05:14:11;;;;;;;2.70;1.67;;;-0.30;54.00;;;;;;4944139;28;46635;-77
2023/12/19 05:16:37;;;;;;;2.20;1.43;;;-0.30;54.00;;;;;;4943480;28;46892;-80
2023/12/19 05:19:04;;;;;;;2.47;1.50;;;-0.40;54.00;;;;;;4946067;28;46714;-77
2023/12/19 05:21:35;;;;;;;10.82;1.73;;;-0.40;54.10;;;;;;4945353;28;46391;-77
2023/12/19 05:24:01;;;;;;;2.80;1.55;;;-0.30;54.00;;;;;;4945762;28;46401;-77
2023/12/19 05:26:26;;;;;;;2.23;1.70;;;-0.20;53.90;;;;;;4940848;28;46796;-78
2023/12/19 05:28:54;;;;;;;2.63;1.63;;;0.00;53.80;;;;;;4944618;28;46501;-78
2023/12/19 05:31:20;;;;;;;2.45;1.45;;;0.10;53.60;;;;;;4944028;28;46463;-77
2023/12/19 05:33:46;;;;;;;2.70;1.37;;;0.30;53.40;;;;;;4943487;28;46501;-79
2023/12/19 05:36:12;;;;;;;1.93;1.40;;;0.50;52.70;;;;;;4941132;28;46515;-77
2023/12/19 05:38:38;;;;;;;2.45;1.65;;;0.70;52.40;;;;;;4942818;28;46489;-79
2023/12/19 05:41:04;;;;;;;2.47;1.70;;;0.70;52.40;;;;;;4945067;28;46516;-79
2023/12/19 05:43:29;;;;;;;3.90;1.73;;;0.70;52.50;;;;;;4944557;28;46560;-78
2023/12/19 05:45:55;;;;;;;2.67;1.33;;;0.70;52.60;;;;;;4940786;28;46981;-79
2023/12/19 05:48:20;;;;;;;2.57;1.70;;;0.80;52.70;;;;;;4943859;28;46420;-80
2023/12/19 05:50:47;;;;;;;2.00;1.40;;;0.80;52.60;;;;;;4942238;28;46419;-79
2023/12/19 05:53:12;;;;;;;2.58;1.40;;;0.80;52.70;;;;;;4946333;28;46455;-78
2023/12/19 05:55:38;;;;;;;4.30;1.23;;;0.80;52.90;;;;;;4941972;28;46447;-77
2023/12/19 05:58:04;;;;;;;3.97;1.93;;;0.80;52.80;;;;;;4941904;28;46946;-77
2023/12/19 06:00:29;;;;;;;3.00;1.50;;;0.80;52.70;;;;;;4940455;28;46725;-77
2023/12/19 06:02:55;;;;;;;3.40;1.70;;;0.90;52.60;;;;;;4941661;28;47070;-77
2023/12/19 06:05:20;;;;;;;2.53;1.70;;;1.00;52.30;;;;;;4939159;28;46526;-77
2023/12/19 06:07:46;;;;;;;3.50;1.57;;;1.20;52.10;;;;;;4943036;28;46591;-76
2023/12/19 06:10:12;;;;;;;1.90;1.40;;;1.20;51.80;;;;;;4923331;28;46509;-76
2023/12/19 06:12:39;;;;;;;2.75;1.50;;;1.30;51.50;;;;;;4942075;28;46948;-76
2023/12/19 06:15:08;;;;;;;4.30;1.42;;;1.40;51.50;;;;;;4942152;28;46429;-79
2023/12/19 06:17:43;;;;;;;4.32;1.20;;;1.40;51.60;;;;;;4940889;28;46511;-78
2023/12/19 06:20:10;;;;;;;1.73;1.20;;;1.40;51.70;;;;;;4939903;28;46908;-77
2023/12/19 06:22:36;;;;;;;1.70;1.20;;;1.40;51.80;;;;;;4920948;28;46208;-77
2023/12/19 06:25:01;;;;;;;3.30;1.15;;;1.40;51.90;;;;;;4924252;28;46526;-77
2023/12/19 06:27:28;;;;;;;2.00;1.20;;;1.40;52.00;;;;;;4940083;28;46832;-76
2023/12/19 06:29:54;;;;;;;2.10;1.20;;;1.30;52.10;;;;;;4924575;28;47209;-78
2023/12/19 06:32:20;;;;;;;6.80;1.35;;;1.40;51.90;;;;;;4921173;28;46379;-79
2023/12/19 06:34:46;;;;;;;3.67;1.30;;;1.40;51.90;;;;;;4941227;28;46423;-78
2023/12/19 06:37:11;;;;;;;2.43;1.37;;;1.40;52.20;;;;;;4940334;28;46369;-79
2023/12/19 06:39:37;;;;;;;3.47;1.83;;;1.30;52.70;;;;;;4940583;28;46078;-78
2023/12/19 06:42:03;;;;;;;2.37;1.43;;;1.20;52.60;;;;;;4940936;28;46378;-78
2023/12/19 06:44:29;;;;;;;3.10;1.60;;;1.20;52.50;;;;;;4939271;28;46518;-79
2023/12/19 06:46:54;;;;;;;3.23;1.87;;;1.20;52.50;;;;;;4940760;28;46703;-79
2023/12/19 06:49:20;;;;;;;3.03;1.80;;;1.20;52.50;;;;;;4939537;28;46308;-78
2023/12/19 06:51:46;;;;;;;3.47;1.83;;;1.20;52.20;;;;;;4938649;28;46788;-78
2023/12/19 06:54:11;;;;;;;2.37;1.30;;;1.30;52.20;;;;;;4943335;28;45920;-78
2023/12/19 06:56:37;;;;;;;1.80;1.40;;;1.30;52.00;;;;;;4942359;28;46487;-78
2023/12/19 06:59:04;;;;;;;4.20;1.80;;;1.30;51.80;;;;;;4926639;28;46691;-79
2023/12/19 07:01:29;;;;;;;2.25;1.50;;;1.40;51.60;;;;;;4943168;28;46672;-77
2023/12/19 07:03:55;;;;;;;3.27;1.40;;;1.50;51.20;;;;;;4943966;28;46523;-77
2023/12/19 07:06:21;;;;;;;2.57;1.77;;;1.50;51.10;;;;;;4940856;28;46399;-76
2023/12/19 07:08:46;;;;;;;5.93;1.97;;;1.50;51.00;;;;;;4914707;28;46671;-78
2023/12/19 07:11:13;;;;;;;4.23;2.10;;;1.60;51.10;;;;;;4938087;28;46714;-77
2023/12/19 07:13:39;;;;;;;3.33;1.80;;;1.60;50.90;;;;;;4919661;28;46467;-77
2023/12/19 07:16:06;;;;;;;3.40;1.40;;;1.60;50.80;;;;;;4937745;28;46534;-76
2023/12/19 07:18:31;;;;;;;3.60;1.40;;;1.70;50.80;;;;;;4936489;28;47016;-78
2023/12/19 07:20:57;;;;;;;4.30;1.90;;;1.70;50.70;;;;;;4939225;28;47316;-78
2023/12/19 07:23:23;;;;;;;2.20;1.53;;;1.70;50.60;;;;;;4938880;28;46490;-79
2023/12/19 07:25:49;;;;;;;4.93;1.73;;;1.80;50.70;;;;;;4937961;28;47039;-79
2023/12/19 07:28:16;;;;;;;2.57;1.70;;;1.80;50.50;;;;;;4937299;28;46747;-78
2023/12/19 07:30:41;;;;;;;2.38;1.42;;;1.90;50.50;;;;;;4941247;28;46458;-80
2023/12/19 07:33:07;;;;;;;3.30;1.63;;;1.90;50.50;;;;;;4938707;28;45920;-79
2023/12/19 07:35:32;;;;;;;5.40;2.20;;;2.00;50.30;;;;;;4939961;28;46400;-78
2023/12/19 07:37:58;;;;;;;5.33;2.60;;;2.10;50.20;;;;;;4936710;28;46219;-77
2023/12/19 07:40:23;;;;;;;3.70;1.93;;;2.20;50.10;;;;;;4937971;28;46480;-77
2023/12/19 07:42:49;;;;;;;3.93;1.90;;;2.30;49.80;;;;;;4935123;28;46511;-78
2023/12/19 07:45:15;;;;;;;3.20;1.67;;;2.40;49.50;;;;;;4940442;28;47484;-78
2023/12/19 07:47:40;;;;;;;3.40;1.50;;;2.50;49.30;;;;;;4938152;28;47024;-77
2023/12/19 07:50:07;;;;;;;4.90;1.87;;;2.60;49.00;;;;;;4937152;28;47487;-79
2023/12/19 07:52:33;;;;;;;3.50;2.17;;;2.80;49.00;;;;;;4937572;28;46461;-78
2023/12/19 07:54:59;;;;;;;4.35;2.30;;;2.90;48.80;;;;;;4919753;28;48166;-75
2023/12/19 07:57:24;;;;;;;11.67;6.03;;;2.90;48.60;;;;;;4935860;28;47391;-79
2023/12/19 07:59:50;;;;;;;7.50;4.40;;;3.00;48.40;;;;;;4941117;28;46629;-81
2023/12/19 08:02:16;;;;;;;7.87;2.57;;;3.00;48.10;;;;;;4944089;28;47762;-78
2023/12/19 08:04:42;;;;;;;5.43;2.70;;;3.10;47.90;;;;;;4942766;28;46884;-79
2023/12/19 08:07:08;;;;;;;4.05;2.20;;;3.20;47.70;;;;;;4944994;28;46556;-75
2023/12/19 08:09:34;;;;;;;5.40;2.20;;;3.20;47.60;;;;;;4944069;28;46461;-79
2023/12/19 08:11:59;;;;;;;5.00;2.17;;;3.30;47.40;;;;;;4943705;28;46834;-76
2023/12/19 08:14:25;;;;;;;2.97;2.17;;;3.40;47.00;;;;;;4944503;28;47449;-79
2023/12/19 08:16:51;;;;;;;4.20;2.33;;;3.40;47.00;;;;;;4942946;28;46482;-78
2023/12/19 08:19:17;;;;;;;4.40;2.57;;;3.60;47.20;;;;;;4943188;28;46550;-78
2023/12/19 08:21:54;;;;;;;4.67;2.53;;;3.70;47.20;;;;;;4945336;28;46517;-79
2023/12/19 08:24:19;;;;;;;6.90;2.80;;;3.70;47.20;;;;;;4926321;28;48613;-78
2023/12/19 08:26:49;;;;;;;5.10;2.60;;;3.80;47.30;;;;;;4944558;28;45842;-79
2023/12/19 08:29:15;;;;;;;5.18;2.90;;;3.90;47.40;;;;;;4942614;28;46466;-78
2023/12/19 08:31:41;;;;;;;5.20;3.20;;;4.00;47.10;;;;;;4943638;28;46713;-78
2023/12/19 08:34:07;;;;;;;3.93;2.40;;;4.10;46.70;;;;;;4943728;28;47159;-79
2023/12/19 08:36:33;;;;;;;3.70;2.27;;;4.10;46.50;;;;;;4941717;28;45940;-78
2023/12/19 08:38:59;;;;;;;3.63;1.83;;;4.30;46.20;;;;;;4945571;28;46768;-78
2023/12/19 08:41:25;;;;;;;2.60;1.77;;;4.30;45.90;;;;;;4927433;28;46494;-79
2023/12/19 08:43:54;;;;;;;3.67;1.80;;;4.40;45.80;;;;;;4943796;28;46515;-79
2023/12/19 08:46:20;;;;;;;2.83;1.80;;;4.50;45.50;;;;;;4942780;28;46395;-79
2023/12/19 08:48:48;;;;;;;2.57;1.50;;;4.60;45.40;;;;;;4943469;28;46540;-78
2023/12/19 08:51:14;;;;;;;3.63;1.83;;;4.70;45.10;;;;;;4943617;28;46944;-77
2023/12/19 08:53:39;;;;;;;5.53;1.53;;;4.80;44.80;;;;;;4943094;28;46811;-77
2023/12/19 08:56:05;;;;;;;4.10;1.73;;;4.90;44.60;;;;;;4942337;28;47031;-77
2023/12/19 08:58:31;;;;;;;2.60;1.87;;;4.90;44.60;;;;;;4938568;28;46426;-77
2023/12/19 09:00:56;;;;;;;4.57;2.40;;;5.00;44.60;;;;;;4940841;28;46621;-79
2023/12/19 09:03:23;;;;;;;4.57;2.13;;;5.10;44.40;;;;;;4942905;28;46674;-77
2023/12/19 09:05:50;;;;;;;4.33;1.60;;;5.20;44.20;;;;;;4943662;28;46709;-79
2023/12/19 09:08:16;;;;;;;3.67;1.50;;;5.30;43.80;;;;;;4943164;28;46439;-78
2023/12/19 09:10:41;;;;;;;2.67;1.63;;;5.40;43.40;;;;;;4942031;28;46436;-79
2023/12/19 09:13:07;;;;;;;4.53;1.60;;;5.60;43.10;;;;;;4941742;28;46829;-80
2023/12/19 09:15:35;;;;;;;3.50;1.47;;;5.80;42.90;;;;;;4939139;28;46467;-77
2023/12/19 09:18:00;;;;;;;5.13;1.50;;;5.90;42.50;;;;;;4940530;28;46725;-80
2023/12/19 09:20:26;;;;;;;4.20;1.50;;;6.00;42.50;;;;;;4940282;28;46577;-77
2023/12/19 09:22:51;;;;;;;3.20;1.63;;;6.10;42.50;;;;;;4942275;28;46407;-79
2023/12/19 09:25:18;;;;;;;5.07;1.87;;;6.20;42.30;;;;;;4941334;28;46852;-79
2023/12/19 09:27:44;;;;;;;2.70;1.30;;;6.20;42.30;;;;;;4940861;28;46521;-79
2023/12/19 09:30:11;;;;;;;2.20;1.20;;;6.30;42.20;;;;;;4945121;28;46891;-78
2023/12/19 09:32:38;;;;;;;2.80;1.20;;;6.40;42.10;;;;;;4945208;28;46697;-78
2023/12/19 09:35:05;;;;;;;2.80;1.40;;;6.60;41.90;;;;;;4943501;28;46933;-79
2023/12/19 09:37:30;;;;;;;4.50;1.50;;;6.70;41.70;;;;;;4943148;28;46914;-76
2023/12/19 09:39:56;;;;;;;1.63;1.10;;;6.90;41.20;;;;;;4928030;28;46672;-78
2023/12/19 09:42:22;;;;;;;1.70;1.00;;;7.00;40.80;;;;;;4939715;28;48077;-77
2023/12/19 09:44:51;;;;;;;2.93;1.20;;;7.10;40.50;;;;;;4940084;28;46670;-78
2023/12/19 09:47:24;;;;;;;1.87;0.90;;;7.30;40.40;;;;;;4938655;28;46906;-78
2023/12/19 09:49:54;;;;;;;1.80;1.10;;;7.40;40.10;;;;;;4937613;28;46641;-75
2023/12/19 09:52:22;;;;;;;1.93;0.80;;;7.50;39.70;;;;;;4938732;28;46445;-77
2023/12/19 09:54:50;;;;;;;3.23;1.03;;;7.50;39.30;;;;;;4936320;28;46657;-79
2023/12/19 09:57:17;;;;;;;2.23;1.00;;;7.50;37.60;;;;;;4937997;28;46779;-79
2023/12/19 09:59:45;;;;;;;2.00;0.90;;;7.60;38.40;;;;;;4919604;28;45927;-79
2023/12/19 10:02:11;;;;;;;1.60;0.80;;;7.70;38.10;;;;;;4938393;28;47113;-79
2023/12/19 10:04:37;;;;;;;2.00;0.83;;;7.90;37.60;;;;;;4938417;28;46691;-78
2023/12/19 10:07:04;;;;;;;1.20;0.67;;;8.00;37.70;;;;;;4934655;28;46682;-79
2023/12/19 10:09:30;;;;;;;1.73;0.93;;;8.20;36.30;;;;;;4937180;28;46401;-79
2023/12/19 10:12:12;;;;;;;1.47;0.80;;;8.20;35.50;;;;;;4935575;28;48394;-78
2023/12/19 10:14:38;;;;;;;2.30;0.80;;;8.30;35.00;;;;;;4936197;28;46626;-81
2023/12/19 10:17:11;;;;;;;1.73;0.87;;;8.40;34.60;;;;;;4935944;28;46596;-80
2023/12/19 10:19:38;;;;;;;1.50;0.70;;;8.50;34.00;;;;;;4935834;28;46698;-78
2023/12/19 10:22:12;;;;;;;1.60;0.80;;;8.60;32.90;;;;;;4938300;28;48080;-79
2023/12/19 10:24:38;;;;;;;2.03;0.87;;;8.60;32.30;;;;;;4936013;28;46908;-78
2023/12/19 10:27:07;;;;;;;2.10;0.70;;;8.60;29.60;;;;;;4938810;28;46430;-80
2023/12/19 10:29:36;;;;;;;2.00;0.80;;;8.70;26.90;;;;;;4935533;28;46579;-78
2023/12/19 10:32:13;;;;;;;3.83;1.10;;;8.60;25.90;;;;;;4937043;28;46618;-79
2023/12/19 10:34:42;;;;;;;1.60;0.80;;;8.60;25.90;;;;;;4937474;28;46679;-77
2023/12/19 10:37:12;;;;;;;1.70;0.90;;;8.70;26.00;;;;;;4940767;28;46560;-80
2023/12/19 10:39:45;;;;;;;2.27;1.13;;;8.80;26.10;;;;;;4918054;28;46574;-78
2023/12/19 10:42:11;;;;;;;4.03;1.23;;;8.80;26.10;;;;;;4937273;28;46679;-79
2023/12/19 10:44:41;;;;;;;1.30;0.70;;;8.90;26.30;;;;;;4919754;28;46710;-79
2023/12/19 10:47:08;;;;;;;1.40;0.70;;;9.00;26.20;;;;;;4937399;28;46583;-78
2023/12/19 10:49:36;;;;;;;1.97;0.80;;;9.10;26.20;;;;;;4920333;28;46586;-79
2023/12/19 10:52:13;;;;;;;1.90;0.97;;;9.20;25.70;;;;;;4939113;28;46772;-80
2023/12/19 10:54:40;;;;;;;1.80;1.00;;;9.30;26.00;;;;;;4935993;28;46726;-79
2023/12/19 10:57:09;;;;;;;1.50;0.80;;;9.40;26.00;;;;;;4920227;28;46447;-79
2023/12/19 10:59:54;;;;;;;3.00;1.57;;;9.50;25.70;;;;;;4937187;28;46541;-79
2023/12/19 11:02:35;;;;;;;2.53;1.30;;;9.50;25.10;;;;;;4938374;28;47142;-79
2023/12/19 11:05:36;;;;;;;4.50;1.37;;;9.60;25.20;;;;;;4918692;28;46558;-80
2023/12/19 11:08:11;;;;;;;2.93;1.20;;;9.60;25.20;;;;;;4935287;28;46862;-78
2023/12/19 11:10:39;;;;;;;3.33;1.40;;;9.70;25.20;;;;;;4936617;28;46476;-78
2023/12/19 11:13:05;;;;;;;2.50;1.43;;;9.80;24.90;;;;;;4938971;28;46398;-79
2023/12/19 11:15:32;;;;;;;5.20;1.50;;;9.90;24.70;;;;;;4934152;28;46814;-78
2023/12/19 11:18:22;;;;;;;4.13;1.33;;;10.00;23.40;;;;;;4935105;28;46525;-77
2023/12/19 11:21:05;;;;;;;2.40;1.00;;;10.00;22.70;;;;;;4937034;28;46530;-80
2023/12/19 11:23:48;;;;;;;2.73;1.00;;;10.10;22.70;;;;;;4939171;28;46983;-78
2023/12/19 11:26:47;;;;;;;2.77;0.90;;;10.10;22.70;;;;;;4922556;28;46760;-79
2023/12/19 11:29:50;;;;;;;2.23;0.80;;;10.10;22.30;;;;;;4901014;28;46488;-80
2023/12/19 11:32:36;;;;;;;2.50;1.37;;;10.20;22.30;;;;;;4940815;28;46710;-77
2023/12/19 11:35:12;;;;;;;2.27;0.90;;;10.20;22.00;;;;;;4928160;28;47989;-79
2023/12/19 11:37:45;;;;;;;1.80;0.80;;;10.30;21.90;;;;;;4935461;28;47134;-77
2023/12/19 11:40:46;;;;;;;2.43;1.20;;;10.30;23.10;;;;;;4941542;28;46434;-80
2023/12/19 11:43:27;;;;;;;4.43;1.10;;;10.40;21.80;;;;;;4924801;28;45949;-79
2023/12/19 11:46:15;;;;;;;1.90;0.90;;;10.50;21.60;;;;;;4937392;28;46806;-79
2023/12/19 11:48:52;;;;;;;1.70;0.80;;;10.50;21.90;;;;;;4927735;28;47092;-77
2023/12/19 11:51:42;;;;;;;4.70;1.00;;;10.50;21.70;;;;;;4936092;28;46818;-79
2023/12/19 11:54:10;;;;;;;2.53;1.50;;;10.50;21.30;;;;;;4938131;28;46733;-78
2023/12/19 11:56:38;;;;;;;2.30;1.17;;;10.50;21.60;;;;;;4941171;28;46674;-79
2023/12/19 11:59:04;;;;;;;2.13;0.80;;;10.60;21.50;;;;;;4940135;28;46441;-81
2023/12/19 12:01:40;;;;;;;3.10;1.97;;;10.60;21.30;;;;;;4940100;28;46477;-80
2023/12/19 12:04:07;;;;;;;2.70;1.50;;;10.70;20.90;;;;;;4937233;28;46675;-80
2023/12/19 12:06:33;;;;;;;4.83;1.70;;;10.80;20.90;;;;;;4937503;28;48333;-79
2023/12/19 12:08:59;;;;;;;4.50;2.40;;;10.90;20.80;;;;;;4939593;28;47087;-79
2023/12/19 12:11:26;;;;;;;4.80;2.17;;;10.90;20.50;;;;;;4934165;28;46644;-78
2023/12/19 12:14:03;;;;;;;3.17;1.97;;;11.00;20.00;;;;;;4922940;28;46669;-81
2023/12/19 12:16:39;;;;;;;3.80;1.60;;;11.10;19.70;;;;;;4935400;28;46488;-79
2023/12/19 12:19:09;;;;;;;2.00;1.00;;;11.10;19.60;;;;;;4932974;28;45879;-78
2023/12/19 12:21:35;;;;;;;9.93;0.97;;;11.10;19.70;;;;;;4934754;28;46833;-78
2023/12/19 12:24:04;;;;;;;2.13;1.00;;;11.10;19.90;;;;;;4935304;28;46318;-79
2023/12/19 12:26:29;;;;;;;1.90;0.90;;;11.10;19.70;;;;;;4939311;28;47736;-79
2023/12/19 12:28:55;;;;;;;2.20;1.10;;;11.20;19.70;;;;;;4938567;28;46485;-79
2023/12/19 12:31:21;;;;;;;2.10;1.03;;;11.20;19.10;;;;;;4939969;28;46557;-79
2023/12/19 12:33:46;;;;;;;3.00;0.93;;;11.20;18.20;;;;;;4922158;28;46755;-79
2023/12/19 12:36:12;;;;;;;2.90;0.90;;;11.20;17.30;;;;;;4937562;28;46426;-80
2023/12/19 12:38:38;;;;;;;1.67;0.80;;;11.30;17.40;;;;;;4939204;28;46657;-79
2023/12/19 12:41:04;;;;;;;4.07;0.90;;;11.20;18.10;;;;;;4937129;28;46495;-78
2023/12/19 12:43:33;;;;;;;2.57;0.90;;;11.30;18.20;;;;;;4938832;28;46397;-79
2023/12/19 12:46:16;;;;;;;1.70;0.90;;;11.30;17.80;;;;;;4938670;28;48551;-79
2023/12/19 12:49:01;;;;;;;2.53;1.07;;;11.30;17.00;;;;;;4924112;28;46562;-78
2023/12/19 12:51:27;;;;;;;1.67;0.87;;;11.20;16.30;;;;;;4941513;28;46465;-80
2023/12/19 12:53:55;;;;;;;1.60;0.73;;;11.10;16.00;;;;;;4940381;28;46479;-78
2023/12/19 12:56:38;;;;;;;3.50;0.97;;;10.90;15.50;;;;;;4941876;28;47002;-78